sensor_id;sensor_type;location;lat;lon;timestamp;pressure;altitude;pressure_sealevel;temperature;humidity
35908;BME280;22003;50.320;8.054;2023-03-23T05:00:49;98758.72;;;11.26;92.37
35908;BME280;22003;50.320;8.054;2023-03-23T05:03:19;98755.00;;;11.19;92.61
35908;BME280;22003;50.320;8.054;2023-03-23T05:05:46;98744.25;;;11.20;92.69
35908;BME280;22003;50.320;8.054;2023-03-23T05:08:16;98727.09;;;11.42;91.76
35908;BME280;22003;50.320;8.054;2023-03-23T05:10:42;98725.72;;;11.38;91.79
35908;BME280;22003;50.320;8.054;2023-03-23T05:13:07;98720.94;;;11.24;91.88
35908;BME280;22003;50.320;8.054;2023-03-23T05:15:32;98720.63;;;11.27;92.28
35908;BME280;22003;50.320;8.054;2023-03-23T05:17:58;98734.63;;;11.19;93.11
35908;BME280;22003;50.320;8.054;2023-03-23T05:20:23;98744.28;;;11.38;92.19
35908;BME280;22003;50.320;8.054;2023-03-23T05:22:50;98724.97;;;11.00;93.71
35908;BME280;22003;50.320;8.054;2023-03-23T05:25:16;98740.16;;;11.26;92.52
35908;BME280;22003;50.320;8.054;2023-03-23T05:27:44;98761.16;;;11.37;91.59
35908;BME280;22003;50.320;8.054;2023-03-23T05:30:14;98760.84;;;11.22;92.83
35908;BME280;22003;50.320;8.054;2023-03-23T05:32:41;98756.88;;;11.54;92.52
35908;BME280;22003;50.320;8.054;2023-03-23T05:35:07;98742.00;;;11.43;91.61
35908;BME280;22003;50.320;8.054;2023-03-23T05:37:32;98733.44;;;11.31;91.10
35908;BME280;22003;50.320;8.054;2023-03-23T05:40:00;98715.31;;;11.27;91.28
35908;BME280;22003;50.320;8.054;2023-03-23T05:42:30;98721.53;;;11.18;92.95
35908;BME280;22003;50.320;8.054;2023-03-23T05:44:56;98726.34;;;11.50;92.35
35908;BME280;22003;50.320;8.054;2023-03-23T05:47:21;98737.81;;;11.23;92.28
35908;BME280;22003;50.320;8.054;2023-03-23T05:49:46;98744.63;;;11.25;92.96
35908;BME280;22003;50.320;8.054;2023-03-23T05:52:11;98752.28;;;11.10;93.95
35908;BME280;22003;50.320;8.054;2023-03-23T05:54:37;98747.53;;;11.04;94.93
35908;BME280;22003;50.320;8.054;2023-03-23T05:57:03;98742.47;;;11.39;93.80
35908;BME280;22003;50.320;8.054;2023-03-23T05:59:28;98751.16;;;11.31;93.39
35908;BME280;22003;50.320;8.054;2023-03-23T06:01:54;98747.41;;;11.33;92.93
35908;BME280;22003;50.320;8.054;2023-03-23T06:04:20;98756.81;;;11.46;92.38
35908;BME280;22003;50.320;8.054;2023-03-23T06:06:46;98762.91;;;11.28;92.42
35908;BME280;22003;50.320;8.054;2023-03-23T06:09:11;98761.75;;;11.58;91.23
35908;BME280;22003;50.320;8.054;2023-03-23T06:11:36;98770.47;;;11.69;90.30
35908;BME280;22003;50.320;8.054;2023-03-23T06:14:02;98757.63;;;11.46;91.25
35908;BME280;22003;50.320;8.054;2023-03-23T06:16:28;98780.63;;;11.73;91.03
35908;BME280;22003;50.320;8.054;2023-03-23T06:18:53;98762.72;;;11.57;90.87
35908;BME280;22003;50.320;8.054;2023-03-23T06:21:19;98778.72;;;11.66;90.41
35908;BME280;22003;50.320;8.054;2023-03-23T06:23:45;98750.06;;;11.69;89.65
35908;BME280;22003;50.320;8.054;2023-03-23T06:26:12;98765.44;;;11.66;89.40
35908;BME280;22003;50.320;8.054;2023-03-23T06:28:39;98799.81;;;11.67;89.82
35908;BME280;22003;50.320;8.054;2023-03-23T06:31:05;98782.19;;;11.48;90.47
35908;BME280;22003;50.320;8.054;2023-03-23T06:33:33;98802.97;;;11.71;90.18
35908;BME280;22003;50.320;8.054;2023-03-23T06:35:59;98817.69;;;11.65;89.97
35908;BME280;22003;50.320;8.054;2023-03-23T06:38:24;98805.63;;;11.98;87.86
35908;BME280;22003;50.320;8.054;2023-03-23T06:40:52;98792.13;;;11.92;87.82
35908;BME280;22003;50.320;8.054;2023-03-23T06:43:18;98785.63;;;11.76;88.93
35908;BME280;22003;50.320;8.054;2023-03-23T06:45:43;98775.84;;;11.59;89.96
35908;BME280;22003;50.320;8.054;2023-03-23T06:48:08;98780.63;;;11.55;90.51
35908;BME280;22003;50.320;8.054;2023-03-23T06:50:34;98763.34;;;11.51;89.77
35908;BME280;22003;50.320;8.054;2023-03-23T06:52:59;98761.50;;;11.52;90.20
35908;BME280;22003;50.320;8.054;2023-03-23T06:55:25;98771.53;;;11.58;89.70
35908;BME280;22003;50.320;8.054;2023-03-23T06:57:50;98790.72;;;11.70;89.81
35908;BME280;22003;50.320;8.054;2023-03-23T07:00:15;98782.97;;;11.76;88.59
35908;BME280;22003;50.320;8.054;2023-03-23T07:02:41;98797.81;;;11.97;88.03
35908;BME280;22003;50.320;8.054;2023-03-23T07:05:08;98791.13;;;11.93;87.82
35908;BME280;22003;50.320;8.054;2023-03-23T07:07:34;98800.19;;;11.72;89.12
35908;BME280;22003;50.320;8.054;2023-03-23T07:10:00;98794.13;;;11.62;90.13
35908;BME280;22003;50.320;8.054;2023-03-23T07:12:25;98785.16;;;11.63;89.80
35908;BME280;22003;50.320;8.054;2023-03-23T07:14:52;98803.97;;;11.70;89.50
35908;BME280;22003;50.320;8.054;2023-03-23T07:17:17;98781.09;;;11.69;87.35
35908;BME280;22003;50.320;8.054;2023-03-23T07:19:43;98786.38;;;11.69;87.92
35908;BME280;22003;50.320;8.054;2023-03-23T07:22:08;98780.19;;;11.78;88.08
35908;BME280;22003;50.320;8.054;2023-03-23T07:24:34;98772.56;;;11.65;87.66
35908;BME280;22003;50.320;8.054;2023-03-23T07:27:00;98798.06;;;11.76;88.09
35908;BME280;22003;50.320;8.054;2023-03-23T07:29:25;98782.84;;;11.78;86.86
35908;BME280;22003;50.320;8.054;2023-03-23T07:31:51;98784.81;;;11.94;86.50
35908;BME280;22003;50.320;8.054;2023-03-23T07:34:17;98779.69;;;11.92;85.78
35908;BME280;22003;50.320;8.054;2023-03-23T07:36:42;98777.25;;;12.17;84.19
35908;BME280;22003;50.320;8.054;2023-03-23T07:39:08;98793.34;;;11.97;86.14
35908;BME280;22003;50.320;8.054;2023-03-23T07:41:33;98802.97;;;12.16;84.96
35908;BME280;22003;50.320;8.054;2023-03-23T07:43:58;98797.28;;;12.11;85.73
35908;BME280;22003;50.320;8.054;2023-03-23T07:46:24;98794.31;;;11.96;86.39
35908;BME280;22003;50.320;8.054;2023-03-23T07:48:49;98809.13;;;12.17;84.72
35908;BME280;22003;50.320;8.054;2023-03-23T07:51:15;98800.75;;;12.29;84.44
35908;BME280;22003;50.320;8.054;2023-03-23T07:53:42;98808.19;;;12.26;83.77
35908;BME280;22003;50.320;8.054;2023-03-23T07:56:09;98824.59;;;12.65;82.01
35908;BME280;22003;50.320;8.054;2023-03-23T07:58:35;98809.69;;;12.46;82.79
35908;BME280;22003;50.320;8.054;2023-03-23T08:01:00;98807.16;;;12.62;82.88
35908;BME280;22003;50.320;8.054;2023-03-23T08:03:25;98827.41;;;12.63;82.36
35908;BME280;22003;50.320;8.054;2023-03-23T08:05:51;98821.38;;;12.79;81.90
35908;BME280;22003;50.320;8.054;2023-03-23T08:08:16;98807.53;;;12.67;81.83
35908;BME280;22003;50.320;8.054;2023-03-23T08:10:41;98836.41;;;12.88;82.02
35908;BME280;22003;50.320;8.054;2023-03-23T08:13:07;98825.16;;;12.94;81.08
35908;BME280;22003;50.320;8.054;2023-03-23T08:15:33;98822.03;;;13.07;79.44
35908;BME280;22003;50.320;8.054;2023-03-23T08:18:02;98836.72;;;13.11;79.49
35908;BME280;22003;50.320;8.054;2023-03-23T08:20:28;98830.34;;;12.78;80.50
35908;BME280;22003;50.320;8.054;2023-03-23T08:22:54;98853.91;;;12.73;82.41
35908;BME280;22003;50.320;8.054;2023-03-23T08:25:21;98835.78;;;12.94;80.50
35908;BME280;22003;50.320;8.054;2023-03-23T08:27:47;98840.84;;;12.88;81.42
35908;BME280;22003;50.320;8.054;2023-03-23T08:30:14;98843.22;;;12.91;79.90
35908;BME280;22003;50.320;8.054;2023-03-23T08:32:40;98843.53;;;13.14;78.86
35908;BME280;22003;50.320;8.054;2023-03-23T08:35:08;98830.31;;;13.04;81.14
35908;BME280;22003;50.320;8.054;2023-03-23T08:37:34;98830.16;;;13.24;80.32
35908;BME280;22003;50.320;8.054;2023-03-23T08:39:59;98837.31;;;13.31;79.54
35908;BME280;22003;50.320;8.054;2023-03-23T08:42:25;98834.19;;;13.36;80.54
35908;BME280;22003;50.320;8.054;2023-03-23T08:44:51;98828.38;;;13.40;78.85
35908;BME280;22003;50.320;8.054;2023-03-23T08:47:16;98835.09;;;13.53;79.23
35908;BME280;22003;50.320;8.054;2023-03-23T08:49:43;98839.31;;;13.71;78.85
35908;BME280;22003;50.320;8.054;2023-03-23T08:52:10;98830.66;;;13.69;78.10
35908;BME280;22003;50.320;8.054;2023-03-23T08:54:35;98836.38;;;13.83;76.75
35908;BME280;22003;50.320;8.054;2023-03-23T08:57:01;98824.84;;;13.82;77.76
35908;BME280;22003;50.320;8.054;2023-03-23T08:59:28;98819.56;;;13.90;75.38
35908;BME280;22003;50.320;8.054;2023-03-23T09:01:53;98820.91;;;14.03;76.02
35908;BME280;22003;50.320;8.054;2023-03-23T09:04:19;98822.78;;;14.35;73.36
35908;BME280;22003;50.320;8.054;2023-03-23T09:06:44;98814.44;;;14.38;72.29
35908;BME280;22003;50.320;8.054;2023-03-23T09:09:11;98824.94;;;14.39;72.52
35908;BME280;22003;50.320;8.054;2023-03-23T09:11:37;98830.13;;;14.57;71.97
35908;BME280;22003;50.320;8.054;2023-03-23T09:14:04;98831.94;;;14.65;71.50
35908;BME280;22003;50.320;8.054;2023-03-23T09:16:29;98803.28;;;14.26;72.03
35908;BME280;22003;50.320;8.054;2023-03-23T09:18:55;98837.25;;;14.24;71.91
35908;BME280;22003;50.320;8.054;2023-03-23T09:21:23;98836.25;;;14.17;71.21
35908;BME280;22003;50.320;8.054;2023-03-23T09:23:48;98818.91;;;14.05;71.51
35908;BME280;22003;50.320;8.054;2023-03-23T09:26:14;98831.22;;;13.97;72.31
35908;BME280;22003;50.320;8.054;2023-03-23T09:28:40;98822.41;;;13.89;74.08
35908;BME280;22003;50.320;8.054;2023-03-23T09:31:05;98840.44;;;14.27;73.07
35908;BME280;22003;50.320;8.054;2023-03-23T09:33:30;98837.22;;;13.99;73.76
35908;BME280;22003;50.320;8.054;2023-03-23T09:35:59;98831.66;;;13.77;74.27
35908;BME280;22003;50.320;8.054;2023-03-23T09:38:24;98818.03;;;13.80;73.19
35908;BME280;22003;50.320;8.054;2023-03-23T09:43:46;98841.13;;;13.63;73.20
35908;BME280;22003;50.320;8.054;2023-03-23T09:51:56;98851.44;;;13.66;72.68
35908;BME280;22003;50.320;8.054;2023-03-23T09:54:28;98851.25;;;13.59;71.89
35908;BME280;22003;50.320;8.054;2023-03-23T09:56:55;98831.13;;;13.57;72.64
35908;BME280;22003;50.320;8.054;2023-03-23T09:59:39;98861.66;;;13.87;74.71
35908;BME280;22003;50.320;8.054;2023-03-23T10:02:24;98858.22;;;14.11;72.37
35908;BME280;22003;50.320;8.054;2023-03-23T10:04:54;98857.56;;;14.17;73.32
35908;BME280;22003;50.320;8.054;2023-03-23T10:07:23;98853.75;;;14.36;71.86
35908;BME280;22003;50.320;8.054;2023-03-23T10:10:00;98851.94;;;14.44;72.44
35908;BME280;22003;50.320;8.054;2023-03-23T10:13:11;98848.91;;;14.23;70.50
35908;BME280;22003;50.320;8.054;2023-03-23T10:15:41;98862.69;;;14.02;73.22
35908;BME280;22003;50.320;8.054;2023-03-23T10:20:48;98861.22;;;14.24;73.20
35908;BME280;22003;50.320;8.054;2023-03-23T10:28:19;98827.13;;;14.27;73.64
35908;BME280;22003;50.320;8.054;2023-03-23T10:30:55;98824.13;;;14.39;72.07
35908;BME280;22003;50.320;8.054;2023-03-23T10:33:33;98831.28;;;14.79;71.71
35908;BME280;22003;50.320;8.054;2023-03-23T10:38:57;98818.63;;;15.37;69.57
35908;BME280;22003;50.320;8.054;2023-03-23T10:41:23;98837.38;;;15.68;69.08
35908;BME280;22003;50.320;8.054;2023-03-23T10:43:48;98850.03;;;15.74;68.76
35908;BME280;22003;50.320;8.054;2023-03-23T10:47:05;98855.44;;;16.43;69.49
35908;BME280;22003;50.320;8.054;2023-03-23T10:49:34;98854.06;;;16.47;66.43
35908;BME280;22003;50.320;8.054;2023-03-23T10:54:51;98856.63;;;15.47;67.95
35908;BME280;22003;50.320;8.054;2023-03-23T10:57:27;98852.56;;;15.59;70.07
35908;BME280;22003;50.320;8.054;2023-03-23T11:00:23;98882.25;;;15.17;70.04
35908;BME280;22003;50.320;8.054;2023-03-23T11:03:06;98885.94;;;14.99;69.80
35908;BME280;22003;50.320;8.054;2023-03-23T11:05:36;98887.44;;;14.69;70.33
35908;BME280;22003;50.320;8.054;2023-03-23T11:08:03;98897.09;;;14.62;70.41
35908;BME280;22003;50.320;8.054;2023-03-23T11:11:07;98900.22;;;14.33;71.57
35908;BME280;22003;50.320;8.054;2023-03-23T11:13:33;98877.84;;;14.02;71.79
35908;BME280;22003;50.320;8.054;2023-03-23T11:15:59;98899.34;;;14.24;72.33
35908;BME280;22003;50.320;8.054;2023-03-23T11:18:37;98894.53;;;14.36;70.91
35908;BME280;22003;50.320;8.054;2023-03-23T11:21:03;98896.44;;;14.52;70.94
35908;BME280;22003;50.320;8.054;2023-03-23T11:23:36;98906.59;;;14.57;71.62
35908;BME280;22003;50.320;8.054;2023-03-23T11:26:24;98899.53;;;14.31;71.49
35908;BME280;22003;50.320;8.054;2023-03-23T11:28:58;98907.09;;;14.52;71.51
35908;BME280;22003;50.320;8.054;2023-03-23T11:31:32;98905.78;;;14.72;71.17
35908;BME280;22003;50.320;8.054;2023-03-23T11:34:19;98905.78;;;14.89;70.78
35908;BME280;22003;50.320;8.054;2023-03-23T11:36:51;98893.13;;;14.66;71.62
35908;BME280;22003;50.320;8.054;2023-03-23T11:39:32;98901.47;;;14.71;71.46
35908;BME280;22003;50.320;8.054;2023-03-23T11:42:00;98901.63;;;14.78;71.09
35908;BME280;22003;50.320;8.054;2023-03-23T11:44:33;98907.28;;;14.75;71.18
35908;BME280;22003;50.320;8.054;2023-03-23T11:47:08;98905.09;;;14.70;72.24
35908;BME280;22003;50.320;8.054;2023-03-23T11:49:37;98902.09;;;14.73;70.93
35908;BME280;22003;50.320;8.054;2023-03-23T11:55:22;98892.63;;;14.63;71.87
35908;BME280;22003;50.320;8.054;2023-03-23T11:57:48;98888.78;;;14.57;71.93
35908;BME280;22003;50.320;8.054;2023-03-23T12:00:19;98880.38;;;15.25;69.36
35908;BME280;22003;50.320;8.054;2023-03-23T12:03:06;98873.69;;;15.85;67.12
35908;BME280;22003;50.320;8.054;2023-03-23T12:05:41;98858.66;;;16.38;67.02
35908;BME280;22003;50.320;8.054;2023-03-23T12:08:17;98845.09;;;15.94;65.71
35908;BME280;22003;50.320;8.054;2023-03-23T12:10:56;98833.22;;;15.65;65.72
35908;BME280;22003;50.320;8.054;2023-03-23T12:19:08;98832.53;;;16.71;63.84
35908;BME280;22003;50.320;8.054;2023-03-23T12:22:18;98830.50;;;16.73;63.38
35908;BME280;22003;50.320;8.054;2023-03-23T12:27:34;98823.75;;;16.17;64.03
35908;BME280;22003;50.320;8.054;2023-03-23T12:33:18;98812.00;;;16.63;63.61
35908;BME280;22003;50.320;8.054;2023-03-23T12:36:00;98813.53;;;16.58;63.49
35908;BME280;22003;50.320;8.054;2023-03-23T12:41:11;98847.75;;;16.85;63.52
35908;BME280;22003;50.320;8.054;2023-03-23T12:46:39;98829.00;;;16.48;63.75
35908;BME280;22003;50.320;8.054;2023-03-23T12:49:11;98837.16;;;16.31;64.45
35908;BME280;22003;50.320;8.054;2023-03-23T12:54:45;98824.66;;;16.47;65.03
35908;BME280;22003;50.320;8.054;2023-03-23T12:57:51;98825.16;;;16.73;65.20
35908;BME280;22003;50.320;8.054;2023-03-23T13:00:26;98827.56;;;16.83;63.50
35908;BME280;22003;50.320;8.054;2023-03-23T13:03:07;98808.00;;;16.59;63.88
35908;BME280;22003;50.320;8.054;2023-03-23T13:08:19;98819.94;;;16.34;66.90
35908;BME280;22003;50.320;8.054;2023-03-23T13:10:50;98816.97;;;16.06;65.58
35908;BME280;22003;50.320;8.054;2023-03-23T13:13:23;98808.53;;;15.94;66.51
35908;BME280;22003;50.320;8.054;2023-03-23T13:18:42;98805.03;;;16.40;66.03
35908;BME280;22003;50.320;8.054;2023-03-23T13:21:29;98807.41;;;16.34;66.04
35908;BME280;22003;50.320;8.054;2023-03-23T13:24:05;98816.97;;;17.04;63.47
35908;BME280;22003;50.320;8.054;2023-03-23T13:26:37;98800.56;;;17.88;62.89
35908;BME280;22003;50.320;8.054;2023-03-23T13:29:16;98782.50;;;17.97;60.91
35908;BME280;22003;50.320;8.054;2023-03-23T13:31:43;98797.41;;;17.19;61.23
35908;BME280;22003;50.320;8.054;2023-03-23T13:34:18;98799.53;;;17.08;63.47
35908;BME280;22003;50.320;8.054;2023-03-23T13:36:55;98794.19;;;17.23;62.32
35908;BME280;22003;50.320;8.054;2023-03-23T13:39:25;98792.69;;;17.21;61.22
35908;BME280;22003;50.320;8.054;2023-03-23T13:49:55;98808.53;;;16.40;63.03
35908;BME280;22003;50.320;8.054;2023-03-23T13:52:39;98815.34;;;16.43;63.10
35908;BME280;22003;50.320;8.054;2023-03-23T14:00:35;98807.63;;;16.02;64.25
35908;BME280;22003;50.320;8.054;2023-03-23T14:03:25;98804.84;;;15.95;63.81
35908;BME280;22003;50.320;8.054;2023-03-23T14:10:58;98810.22;;;15.48;67.27
35908;BME280;22003;50.320;8.054;2023-03-23T14:13:41;98801.47;;;15.31;67.57
35908;BME280;22003;50.320;8.054;2023-03-23T14:18:49;98801.56;;;15.07;68.79
35908;BME280;22003;50.320;8.054;2023-03-23T14:21:23;98797.19;;;15.14;67.11
35908;BME280;22003;50.320;8.054;2023-03-23T14:23:49;98791.34;;;15.10;68.20
35908;BME280;22003;50.320;8.054;2023-03-23T14:26:17;98803.97;;;15.32;68.43
35908;BME280;22003;50.320;8.054;2023-03-23T14:28:49;98806.41;;;15.42;68.78
35908;BME280;22003;50.320;8.054;2023-03-23T14:31:19;98814.81;;;15.70;68.68
35908;BME280;22003;50.320;8.054;2023-03-23T14:33:45;98812.53;;;16.21;68.17
35908;BME280;22003;50.320;8.054;2023-03-23T14:36:13;98804.16;;;16.62;66.10
35908;BME280;22003;50.320;8.054;2023-03-23T14:38:39;98802.19;;;17.08;64.32
35908;BME280;22003;50.320;8.054;2023-03-23T14:41:05;98797.22;;;16.53;65.13
35908;BME280;22003;50.320;8.054;2023-03-23T14:43:33;98810.97;;;16.27;65.97
35908;BME280;22003;50.320;8.054;2023-03-23T14:46:01;98811.09;;;16.33;66.87
35908;BME280;22003;50.320;8.054;2023-03-23T14:48:26;98796.19;;;16.16;67.11
35908;BME280;22003;50.320;8.054;2023-03-23T14:51:00;98801.75;;;16.29;67.86
35908;BME280;22003;50.320;8.054;2023-03-23T14:53:37;98790.75;;;16.47;65.58
35908;BME280;22003;50.320;8.054;2023-03-23T14:56:12;98814.81;;;16.47;66.17
35908;BME280;22003;50.320;8.054;2023-03-23T14:58:38;98790.97;;;16.60;65.13
35908;BME280;22003;50.320;8.054;2023-03-23T15:01:09;98790.09;;;16.45;64.96
35908;BME280;22003;50.320;8.054;2023-03-23T15:03:49;98802.53;;;16.38;65.73
35908;BME280;22003;50.320;8.054;2023-03-23T15:06:18;98800.84;;;15.91;67.44
35908;BME280;22003;50.320;8.054;2023-03-23T15:08:47;98785.97;;;16.20;66.92
35908;BME280;22003;50.320;8.054;2023-03-23T15:11:23;98802.03;;;15.66;68.15
35908;BME280;22003;50.320;8.054;2023-03-23T15:13:52;98789.63;;;15.34;68.83
35908;BME280;22003;50.320;8.054;2023-03-23T15:16:25;98813.13;;;15.77;67.84
35908;BME280;22003;50.320;8.054;2023-03-23T15:19:00;98819.19;;;15.71;68.80
35908;BME280;22003;50.320;8.054;2023-03-23T15:21:31;98825.84;;;15.98;68.02
35908;BME280;22003;50.320;8.054;2023-03-23T15:23:59;98816.25;;;15.89;67.83
35908;BME280;22003;50.320;8.054;2023-03-23T15:26:32;98824.56;;;15.94;66.55
35908;BME280;22003;50.320;8.054;2023-03-23T15:29:05;98821.53;;;15.66;67.12
35908;BME280;22003;50.320;8.054;2023-03-23T15:31:39;98822.84;;;15.70;66.67
35908;BME280;22003;50.320;8.054;2023-03-23T15:34:05;98839.78;;;15.46;67.84
35908;BME280;22003;50.320;8.054;2023-03-23T15:36:34;98835.00;;;15.34;67.19
35908;BME280;22003;50.320;8.054;2023-03-23T15:39:00;98814.50;;;15.26;67.21
35908;BME280;22003;50.320;8.054;2023-03-23T15:41:28;98823.84;;;15.22;68.13
35908;BME280;22003;50.320;8.054;2023-03-23T15:43:56;98811.53;;;15.04;68.12
35908;BME280;22003;50.320;8.054;2023-03-23T15:46:25;98821.28;;;15.37;68.36
35908;BME280;22003;50.320;8.054;2023-03-23T15:51:26;98809.41;;;15.47;69.68
35908;BME280;22003;50.320;8.054;2023-03-23T15:53:55;98816.84;;;15.68;68.06
35908;BME280;22003;50.320;8.054;2023-03-23T15:56:21;98806.97;;;15.77;66.94
35908;BME280;22003;50.320;8.054;2023-03-23T15:58:48;98804.16;;;15.93;65.47
35908;BME280;22003;50.320;8.054;2023-03-23T16:01:19;98799.53;;;15.87;67.19
35908;BME280;22003;50.320;8.054;2023-03-23T16:06:22;98803.38;;;15.53;67.20
35908;BME280;22003;50.320;8.054;2023-03-23T16:08:48;98803.47;;;15.29;66.52
35908;BME280;22003;50.320;8.054;2023-03-23T16:11:16;98809.38;;;15.16;67.33
35908;BME280;22003;50.320;8.054;2023-03-23T16:13:43;98808.81;;;15.29;66.72
35908;BME280;22003;50.320;8.054;2023-03-23T16:16:15;98785.69;;;15.21;66.13
35908;BME280;22003;50.320;8.054;2023-03-23T16:18:41;98791.72;;;14.99;66.37
35908;BME280;22003;50.320;8.054;2023-03-23T16:21:07;98806.06;;;15.06;67.44
35908;BME280;22003;50.320;8.054;2023-03-23T16:23:32;98799.25;;;14.95;67.83
35908;BME280;22003;50.320;8.054;2023-03-23T16:25:57;98803.56;;;14.96;68.95
35908;BME280;22003;50.320;8.054;2023-03-23T16:28:23;98807.41;;;15.02;67.13
35908;BME280;22003;50.320;8.054;2023-03-23T16:30:48;98776.94;;;14.80;68.82
35908;BME280;22003;50.320;8.054;2023-03-23T16:33:13;98793.78;;;14.89;68.43
35908;BME280;22003;50.320;8.054;2023-03-23T16:35:39;98783.47;;;14.69;69.12
35908;BME280;22003;50.320;8.054;2023-03-23T16:38:05;98795.09;;;14.76;70.29
35908;BME280;22003;50.320;8.054;2023-03-23T16:40:30;98772.13;;;14.43;71.34
35908;BME280;22003;50.320;8.054;2023-03-23T16:42:57;98797.63;;;14.45;72.48
35908;BME280;22003;50.320;8.054;2023-03-23T16:45:22;98797.97;;;14.34;72.83
35908;BME280;22003;50.320;8.054;2023-03-23T16:47:48;98796.44;;;14.32;73.47
35908;BME280;22003;50.320;8.054;2023-03-23T16:50:15;98806.47;;;14.21;74.52
35908;BME280;22003;50.320;8.054;2023-03-23T16:52:42;98807.28;;;14.06;74.64
35908;BME280;22003;50.320;8.054;2023-03-23T16:55:10;98794.63;;;14.32;73.63
35908;BME280;22003;50.320;8.054;2023-03-23T16:57:37;98803.13;;;14.19;74.68
35908;BME280;22003;50.320;8.054;2023-03-23T17:00:06;98806.94;;;14.25;74.21
35908;BME280;22003;50.320;8.054;2023-03-23T17:02:35;98799.09;;;14.15;74.03
35908;BME280;22003;50.320;8.054;2023-03-23T17:05:00;98806.78;;;14.18;73.13
35908;BME280;22003;50.320;8.054;2023-03-23T17:07:26;98798.59;;;14.04;74.19
35908;BME280;22003;50.320;8.054;2023-03-23T17:09:52;98792.81;;;14.16;73.34
35908;BME280;22003;50.320;8.054;2023-03-23T17:12:17;98781.09;;;13.93;74.21
35908;BME280;22003;50.320;8.054;2023-03-23T17:14:43;98804.69;;;13.55;76.47
35908;BME280;22003;50.320;8.054;2023-03-23T17:17:08;98808.00;;;13.57;76.26
35908;BME280;22003;50.320;8.054;2023-03-23T17:19:34;98811.63;;;13.48;76.30
35908;BME280;22003;50.320;8.054;2023-03-23T17:21:59;98796.75;;;13.29;76.97
35908;BME280;22003;50.320;8.054;2023-03-23T17:24:25;98810.59;;;13.33;77.50
35908;BME280;22003;50.320;8.054;2023-03-23T17:26:51;98808.75;;;13.07;78.34
35908;BME280;22003;50.320;8.054;2023-03-23T17:29:17;98791.72;;;12.92;78.40
35908;BME280;22003;50.320;8.054;2023-03-23T17:31:42;98806.38;;;12.96;78.08
35908;BME280;22003;50.320;8.054;2023-03-23T17:34:07;98806.91;;;13.00;78.49
35908;BME280;22003;50.320;8.054;2023-03-23T17:36:33;98822.31;;;12.96;78.89
35908;BME280;22003;50.320;8.054;2023-03-23T17:38:58;98797.00;;;12.84;79.41
35908;BME280;22003;50.320;8.054;2023-03-23T17:41:23;98815.13;;;12.88;79.93
35908;BME280;22003;50.320;8.054;2023-03-23T17:43:49;98817.16;;;12.68;80.58
35908;BME280;22003;50.320;8.054;2023-03-23T17:46:14;98824.59;;;12.65;81.34
35908;BME280;22003;50.320;8.054;2023-03-23T17:48:40;98819.66;;;12.70;81.74
35908;BME280;22003;50.320;8.054;2023-03-23T17:51:06;98830.94;;;12.90;79.97
35908;BME280;22003;50.320;8.054;2023-03-23T17:53:33;98818.63;;;12.63;81.36
35908;BME280;22003;50.320;8.054;2023-03-23T17:56:03;98826.22;;;12.84;80.24
35908;BME280;22003;50.320;8.054;2023-03-23T17:58:28;98832.00;;;12.79;79.90
35908;BME280;22003;50.320;8.054;2023-03-23T18:00:54;98838.38;;;12.60;80.91
35908;BME280;22003;50.320;8.054;2023-03-23T18:03:21;98841.69;;;12.62;80.70
35908;BME280;22003;50.320;8.054;2023-03-23T18:05:47;98835.50;;;12.80;79.36
35908;BME280;22003;50.320;8.054;2023-03-23T18:08:12;98835.22;;;12.65;80.07
35908;BME280;22003;50.320;8.054;2023-03-23T18:10:39;98838.38;;;12.60;80.51
35908;BME280;22003;50.320;8.054;2023-03-23T18:13:05;98830.41;;;12.60;80.50
35908;BME280;22003;50.320;8.054;2023-03-23T18:15:32;98831.28;;;12.69;79.93
35908;BME280;22003;50.320;8.054;2023-03-23T18:17:59;98828.34;;;12.54;80.53
35908;BME280;22003;50.320;8.054;2023-03-23T18:20:25;98833.22;;;12.41;81.67
35908;BME280;22003;50.320;8.054;2023-03-23T18:22:51;98826.75;;;12.43;81.20
35908;BME280;22003;50.320;8.054;2023-03-23T18:25:16;98820.19;;;12.30;81.64
35908;BME280;22003;50.320;8.054;2023-03-23T18:27:42;98823.22;;;12.35;81.52
35908;BME280;22003;50.320;8.054;2023-03-23T18:30:08;98827.53;;;12.36;81.33
35908;BME280;22003;50.320;8.054;2023-03-23T18:32:35;98821.84;;;12.31;81.17
35908;BME280;22003;50.320;8.054;2023-03-23T18:35:00;98829.56;;;12.42;80.76
35908;BME280;22003;50.320;8.054;2023-03-23T18:37:26;98816.56;;;12.57;79.55
35908;BME280;22003;50.320;8.054;2023-03-23T18:39:51;98821.84;;;12.31;80.70
35908;BME280;22003;50.320;8.054;2023-03-23T18:42:17;98831.56;;;12.40;81.21
35908;BME280;22003;50.320;8.054;2023-03-23T18:44:43;98809.78;;;12.19;81.28
35908;BME280;22003;50.320;8.054;2023-03-23T18:47:08;98815.47;;;12.24;82.15
35908;BME280;22003;50.320;8.054;2023-03-23T18:49:33;98790.84;;;11.96;82.44
35908;BME280;22003;50.320;8.054;2023-03-23T18:51:59;98831.09;;;12.27;83.31
35908;BME280;22003;50.320;8.054;2023-03-23T18:54:25;98824.34;;;12.14;84.16
35908;BME280;22003;50.320;8.054;2023-03-23T18:56:51;98831.16;;;11.99;85.04
35908;BME280;22003;50.320;8.054;2023-03-23T18:59:16;98835.19;;;12.03;85.68
35908;BME280;22003;50.320;8.054;2023-03-23T19:01:41;98835.41;;;11.92;86.50
35908;BME280;22003;50.320;8.054;2023-03-23T19:04:06;98832.47;;;11.68;87.55
35908;BME280;22003;50.320;8.054;2023-03-23T19:06:32;98832.63;;;11.66;88.36
35908;BME280;22003;50.320;8.054;2023-03-23T19:08:58;98829.22;;;11.74;88.45
35908;BME280;22003;50.320;8.054;2023-03-23T19:11:24;98836.19;;;11.75;88.71
35908;BME280;22003;50.320;8.054;2023-03-23T19:13:51;98816.97;;;11.45;90.29
35908;BME280;22003;50.320;8.054;2023-03-23T19:16:17;98828.56;;;11.44;90.99
35908;BME280;22003;50.320;8.054;2023-03-23T19:18:43;98819.63;;;11.45;91.27
35908;BME280;22003;50.320;8.054;2023-03-23T19:21:08;98818.28;;;11.31;91.54
35908;BME280;22003;50.320;8.054;2023-03-23T19:23:33;98823.91;;;11.28;91.95
35908;BME280;22003;50.320;8.054;2023-03-23T19:25:59;98826.75;;;11.17;92.99